createdAt,value
2023-01-11T00:01:08.216Z,100715.19
2023-01-11T00:03:34.767Z,100715.19
2023-01-11T00:06:01.221Z,100724.84
2023-01-11T00:08:28.302Z,100718.63
2023-01-11T00:10:55.567Z,100719.50
2023-01-11T00:13:22.193Z,100708.81
2023-01-11T00:15:48.574Z,100701.75
2023-01-11T00:18:14.984Z,100700.75
2023-01-11T00:20:41.792Z,100689.22
2023-01-11T00:23:08.938Z,100691.88
2023-01-11T00:25:35.843Z,100679.38
2023-01-11T00:28:03.216Z,100683.06
2023-01-11T00:30:29.741Z,100676.63
2023-01-11T00:32:57.679Z,100673.09
2023-01-11T00:35:25.263Z,100679.22
2023-01-11T00:37:53.817Z,100666.81
2023-01-11T00:40:20.663Z,100666.81
2023-01-11T00:43:05.955Z,100668.56
2023-01-11T00:45:50.677Z,100657.94
2023-01-11T00:48:17.070Z,100666.81
2023-01-11T00:50:43.407Z,100662.34
2023-01-11T00:53:09.874Z,100640.91
2023-01-11T00:55:36.869Z,100651.50
2023-01-11T00:58:03.860Z,100650.63
2023-01-11T01:00:30.706Z,100647.19
2023-01-11T01:02:57.460Z,100640.09
2023-01-11T01:05:24.275Z,100639.94
2023-01-11T01:07:50.811Z,100639.94
2023-01-11T01:10:18.198Z,100639.78
2023-01-11T01:13:04.202Z,100638.06
2023-01-11T01:15:31.206Z,100643.56
2023-01-11T01:17:57.591Z,100648.75
2023-01-11T01:20:24.721Z,100648.75
2023-01-11T01:22:51.681Z,100642.56
2023-01-11T01:25:18.349Z,100638.94
2023-01-11T01:27:47.379Z,100634.53
2023-01-11T01:30:14.400Z,100634.44
2023-01-11T01:32:40.820Z,100633.69
2023-01-11T01:35:07.828Z,100635.41
2023-01-11T01:37:34.303Z,100638.06
2023-01-11T01:40:00.692Z,100636.34
2023-01-11T01:42:27.155Z,100638.94
2023-01-11T01:45:06.166Z,100640.75
2023-01-11T01:47:53.516Z,100642.56
2023-01-11T01:50:53.217Z,100641.00
2023-01-11T01:53:37.045Z,100640.91
2023-01-11T01:56:08.349Z,100641.75
2023-01-11T01:58:43.585Z,100641.69
2023-01-11T02:01:29.216Z,100627.56
2023-01-11T02:03:55.621Z,100635.56
2023-01-11T02:06:23.141Z,100629.25
2023-01-11T02:08:56.752Z,100629.09
2023-01-11T02:11:32.391Z,100626.53
2023-01-11T02:14:03.286Z,100635.41
2023-01-11T02:16:30.336Z,100632.03
2023-01-11T02:18:58.144Z,100629.09
2023-01-11T02:21:55.181Z,100631.88
2023-01-11T02:24:56.338Z,100625.84
2023-01-11T02:27:36.113Z,100625.75
2023-01-11T02:30:22.054Z,100620.41
2023-01-11T02:33:07.215Z,100622.22
2023-01-11T02:35:39.729Z,100621.25
2023-01-11T02:38:20.413Z,100609.66
2023-01-11T02:40:55.086Z,100607.03
2023-01-11T02:43:57.862Z,100611.38
2023-01-11T02:46:52.953Z,100609.81
2023-01-11T02:49:36.767Z,100619.53
2023-01-11T02:52:12.728Z,100592.03
2023-01-11T02:54:44.308Z,100607.03
2023-01-11T02:57:12.053Z,100602.50
2023-01-11T02:59:39.726Z,100595.34
2023-01-11T03:02:06.179Z,100592.59
2023-01-11T03:04:34.279Z,100591.72
2023-01-11T03:07:38.601Z,100582.00
2023-01-11T03:10:26.629Z,100593.47
2023-01-11T03:13:16.261Z,100574.00
2023-01-11T03:15:58.543Z,100584.66
2023-01-11T03:18:33.667Z,100572.19
2023-01-11T03:21:06.116Z,100569.44
2023-01-11T03:23:52.169Z,100587.25
2023-01-11T03:26:33.594Z,100574.94
2023-01-11T03:29:10.205Z,100574.78
2023-01-11T03:31:40.983Z,100565.81
2023-01-11T03:34:35.422Z,100570.19
2023-01-11T03:37:32.530Z,100568.50
2023-01-11T03:40:06.433Z,100559.84
2023-01-11T03:42:34.119Z,100573.88
2023-01-11T03:45:02.520Z,100569.34
2023-01-11T03:47:30.263Z,100575.53
2023-01-11T03:50:03.908Z,100567.53
2023-01-11T03:52:35.763Z,100566.59
2023-01-11T03:55:05.911Z,100567.53
2023-01-11T03:57:36.235Z,100571.00
2023-01-11T04:00:04.968Z,100561.16
2023-01-11T04:02:38.890Z,100556.84
2023-01-11T04:05:07.068Z,100562.13
2023-01-11T04:07:33.455Z,100559.34
2023-01-11T04:09:59.832Z,100570.03
2023-01-11T04:12:26.928Z,100569.19
2023-01-11T04:14:53.352Z,100560.22
2023-01-11T04:17:19.980Z,100554.03
2023-01-11T04:19:47.040Z,100558.41
2023-01-11T04:22:13.436Z,100566.34
2023-01-11T04:24:39.897Z,100566.41
2023-01-11T04:27:06.550Z,100555.72
2023-01-11T04:29:32.955Z,100566.41
2023-01-11T04:31:59.338Z,100555.56
2023-01-11T04:34:25.686Z,100555.66
2023-01-11T04:36:52.036Z,100546.09
2023-01-11T04:39:18.438Z,100550.22
2023-01-11T04:42:03.372Z,100561.88
2023-01-11T04:44:32.834Z,100553.94
2023-01-11T04:46:59.354Z,100559.19
2023-01-11T04:49:25.721Z,100563.69
2023-01-11T04:51:52.075Z,100564.53
2023-01-11T04:54:18.573Z,100565.31
2023-01-11T04:56:44.912Z,100566.25
2023-01-11T04:59:11.272Z,100564.38
2023-01-11T05:01:37.620Z,100568.91
2023-01-11T05:04:04.170Z,100564.38
2023-01-11T05:06:30.599Z,100557.31
2023-01-11T05:08:57.091Z,100556.47
2023-01-11T05:11:23.548Z,100566.25
2023-01-11T05:13:49.931Z,100564.38
2023-01-11T05:16:19.754Z,100559.03
2023-01-11T05:18:54.995Z,100567.03
2023-01-11T05:21:24.115Z,100571.44
2023-01-11T05:23:51.201Z,100565.31
2023-01-11T05:26:22.689Z,100573.19
2023-01-11T05:28:49.439Z,100571.44
2023-01-11T05:31:16.293Z,100581.19
2023-01-11T05:33:43.163Z,100578.53
2023-01-11T05:36:16.177Z,100581.34
2023-01-11T05:38:44.877Z,100582.09
2023-01-11T05:41:11.295Z,100580.41
2023-01-11T05:43:56.726Z,100577.56
2023-01-11T05:46:23.597Z,100574.09
2023-01-11T05:48:50.615Z,100575.84
2023-01-11T05:51:17.170Z,100573.25
2023-01-11T05:53:43.850Z,100567.03
2023-01-11T05:56:10.230Z,100571.44
2023-01-11T05:58:36.827Z,100575.84
2023-01-11T06:01:03.291Z,100582.91
2023-01-11T06:03:29.697Z,100582.03
2023-01-11T06:05:59.120Z,100584.78
2023-01-11T06:08:26.103Z,100582.91
2023-01-11T06:10:53.745Z,100585.56
2023-01-11T06:13:26.723Z,100599.88
2023-01-11T06:15:54.003Z,100612.28
2023-01-11T06:18:20.598Z,100612.28
2023-01-11T06:20:51.604Z,100597.97
2023-01-11T06:23:18.142Z,100605.97
2023-01-11T06:25:45.455Z,100603.31
2023-01-11T06:28:12.498Z,100614.84
2023-01-11T06:30:39.000Z,100606.94
2023-01-11T06:33:06.661Z,100617.63
2023-01-11T06:35:34.348Z,100621.09
2023-01-11T06:38:00.711Z,100622.88
2023-01-11T06:40:27.090Z,100630.88
2023-01-11T06:42:53.547Z,100631.78
2023-01-11T06:45:22.106Z,100635.47
2023-01-11T06:47:48.974Z,100652.25
2023-01-11T06:50:16.135Z,100652.34
2023-01-11T06:52:42.491Z,100654.06
2023-01-11T06:55:09.698Z,100652.34
2023-01-11T06:57:36.133Z,100653.19
2023-01-11T07:00:03.649Z,100656.72
2023-01-11T07:02:30.200Z,100649.69
2023-01-11T07:04:56.612Z,100653.13
2023-01-11T07:07:23.102Z,100633.66
2023-01-11T07:09:49.504Z,100642.63
2023-01-11T07:12:15.910Z,100646.06
2023-01-11T07:14:42.259Z,100650.53
2023-01-11T07:17:08.684Z,100665.69
2023-01-11T07:19:35.131Z,100665.69
2023-01-11T07:22:01.796Z,100660.34
2023-01-11T07:24:28.439Z,100666.56
2023-01-11T07:26:56.168Z,100692.31
2023-01-11T07:29:22.604Z,100694.13
2023-01-11T07:31:49.075Z,100682.41
2023-01-11T07:34:15.862Z,100692.25
2023-01-11T07:36:42.265Z,100703.69
2023-01-11T07:39:09.168Z,100702.78
2023-01-11T07:41:54.774Z,100694.81
2023-01-11T07:44:21.563Z,100701.91
2023-01-11T07:46:48.078Z,100699.16
2023-01-11T07:49:14.568Z,100707.00
2023-01-11T07:51:40.909Z,100733.63
2023-01-11T07:54:07.439Z,100737.34
2023-01-11T07:56:33.898Z,100736.28
2023-01-11T07:59:00.322Z,100725.53
2023-01-11T08:01:27.027Z,100743.28
2023-01-11T08:03:53.552Z,100762.78
2023-01-11T08:06:20.015Z,100758.31
2023-01-11T08:08:46.447Z,100745.97
2023-01-11T08:11:31.563Z,100754.69
2023-01-11T08:14:16.583Z,100754.69
2023-01-11T08:16:42.951Z,100774.25
2023-01-11T08:19:09.346Z,100777.72
2023-01-11T08:21:36.163Z,100789.19
2023-01-11T08:24:05.581Z,100804.28
2023-01-11T08:26:31.948Z,100794.44
2023-01-11T08:28:58.325Z,100806.81
2023-01-11T08:31:25.912Z,100825.53
2023-01-11T08:33:52.343Z,100827.25
2023-01-11T08:36:18.803Z,100815.63
2023-01-11T08:38:45.235Z,100821.75
2023-01-11T08:41:11.686Z,100834.97
2023-01-11T08:43:38.760Z,100836.66
2023-01-11T08:46:08.302Z,100840.16
2023-01-11T08:48:35.474Z,100832.91
2023-01-11T08:51:01.960Z,100841.72
2023-01-11T08:53:28.540Z,100847.00
2023-01-11T08:55:54.919Z,100853.09
2023-01-11T08:58:21.727Z,100859.16
2023-01-11T09:00:48.320Z,100858.22
2023-01-11T09:03:15.110Z,100867.00
2023-01-11T09:05:42.293Z,100866.09
2023-01-11T09:08:09.252Z,100871.44
2023-01-11T09:10:35.611Z,100877.41
2023-01-11T09:13:02.113Z,100885.41
2023-01-11T09:15:28.522Z,100881.78
2023-01-11T09:17:55.148Z,100880.88
2023-01-11T09:20:22.115Z,100882.59
2023-01-11T09:22:56.476Z,100892.31
2023-01-11T09:25:23.246Z,100900.28
2023-01-11T09:27:51.437Z,100909.88
2023-01-11T09:30:23.078Z,100906.94
2023-01-11T09:32:51.059Z,100920.00
2023-01-11T09:35:19.185Z,100927.88
2023-01-11T09:37:56.007Z,100928.50
2023-01-11T09:40:30.830Z,100931.94
2023-01-11T09:43:01.340Z,100955.09
2023-01-11T09:45:31.777Z,100956.66
2023-01-11T09:48:17.542Z,100949.41
2023-01-11T09:50:48.360Z,100954.75
2023-01-11T09:53:36.123Z,100957.44
2023-01-11T09:56:05.490Z,100962.78
2023-01-11T09:58:54.997Z,100972.72
2023-01-11T10:01:37.795Z,100977.09
2023-01-11T10:04:33.124Z,100984.13
2023-01-11T10:07:37.300Z,100980.44
2023-01-11T10:18:36.990Z,100984.66
2023-01-11T10:19:48.009Z,100996.31
2023-01-11T10:22:19.465Z,100992.44
2023-01-11T10:24:50.583Z,100991.25
2023-01-11T10:27:39.173Z,100993.00
2023-01-11T10:30:32.863Z,100992.75
2023-01-11T10:33:09.819Z,100984.72
2023-01-11T10:36:15.843Z,100985.75
2023-01-11T10:38:57.063Z,100987.63
2023-01-11T10:41:38.523Z,100983.69
2023-01-11T10:44:19.154Z,100978.16
2023-01-11T10:46:50.536Z,100975.97
2023-01-11T10:49:50.213Z,100984.63
2023-01-11T10:52:29.259Z,100980.16
2023-01-11T10:54:57.367Z,100993.13
2023-01-11T10:57:33.967Z,100986.56
2023-01-11T11:00:26.698Z,100992.81
2023-01-11T11:03:21.447Z,100989.88
2023-01-11T11:05:55.779Z,100992.47
2023-01-11T11:08:27.179Z,101004.66
2023-01-11T11:11:02.933Z,101000.94
2023-01-11T11:13:32.044Z,101004.44
2023-01-11T11:16:20.092Z,101000.63
2023-01-11T11:18:47.013Z,100998.88
2023-01-11T11:21:29.480Z,101001.47
2023-01-11T11:24:01.677Z,101004.22
2023-01-11T11:26:37.397Z,100998.88
2023-01-11T11:29:07.228Z,100998.13
2023-01-11T11:31:37.518Z,100995.44
2023-01-11T11:34:11.780Z,101002.69
2023-01-11T11:36:43.316Z,100993.00
2023-01-11T11:39:24.334Z,100984.25
2023-01-11T11:41:56.417Z,101001.28
2023-01-11T11:44:25.789Z,101007.50
2023-01-11T11:47:04.641Z,101004.06
2023-01-11T11:49:34.018Z,101004.13
2023-01-11T11:52:02.633Z,100995.22
2023-01-11T11:54:31.194Z,101012.16
2023-01-11T11:57:11.701Z,101007.75
2023-01-11T11:59:38.180Z,101008.72
2023-01-11T12:02:15.743Z,101016.75
2023-01-11T12:04:48.690Z,101020.34
2023-01-11T12:07:21.594Z,101011.47
2023-01-11T12:09:55.567Z,101013.19
2023-01-11T12:12:25.917Z,101010.59
2023-01-11T12:15:15.429Z,101002.47
2023-01-11T12:17:42.661Z,101002.47
2023-01-11T12:20:29.175Z,100999.72
2023-01-11T12:23:26.047Z,100992.81
2023-01-11T12:26:16.646Z,100991.91
2023-01-11T12:28:43.052Z,100995.31
2023-01-11T12:31:24.761Z,100988.06
2023-01-11T12:34:06.423Z,100987.09
2023-01-11T12:36:54.670Z,100987.28
2023-01-11T12:39:42.904Z,100999.56
2023-01-11T12:42:41.843Z,101006.47
2023-01-11T12:45:08.311Z,101003.63
2023-01-11T12:47:52.058Z,101005.97
2023-01-11T12:50:25.305Z,101005.81
2023-01-11T12:53:06.162Z,101002.19
2023-01-11T12:56:09.772Z,101026.19
2023-01-11T12:58:44.369Z,101019.81
2023-01-11T13:01:29.341Z,101034.00
2023-01-11T13:04:19.702Z,101030.34
2023-01-11T13:07:00.033Z,101028.47
2023-01-11T13:09:37.626Z,101039.88
2023-01-11T13:12:10.143Z,101033.66
2023-01-11T13:14:47.507Z,101025.53
2023-01-11T13:17:17.184Z,101024.66
2023-01-11T13:20:06.567Z,101016.53
2023-01-11T13:22:36.936Z,101008.66
2023-01-11T13:25:12.521Z,101018.19
2023-01-11T13:27:40.096Z,101011.78
2023-01-11T13:30:12.084Z,101000.91
2023-01-11T13:32:41.318Z,101012.31
2023-01-11T13:35:18.374Z,101012.16
2023-01-11T13:37:56.531Z,101011.97
2023-01-11T13:40:27.110Z,101011.03
2023-01-11T13:42:59.284Z,101016.38
2023-01-11T13:45:30.266Z,101019.84
2023-01-11T13:48:05.658Z,101022.53
2023-01-11T13:50:41.561Z,101028.75
2023-01-11T13:53:33.484Z,101034.19
2023-01-11T13:56:03.180Z,101032.47
2023-01-11T13:58:41.923Z,101044.91
2023-01-11T14:01:15.187Z,101031.34
2023-01-11T14:03:55.559Z,101039.19
2023-01-11T14:06:54.264Z,101049.84
2023-01-11T14:09:42.841Z,101051.84
2023-01-11T14:12:17.530Z,101050.09
2023-01-11T14:15:05.742Z,101044.91
2023-01-11T14:17:32.097Z,101045.00
2023-01-11T14:20:14.190Z,101031.78
2023-01-11T14:23:07.788Z,101039.00
2023-01-11T14:25:56.594Z,101040.94
2023-01-11T14:28:44.372Z,101046.28
2023-01-11T14:31:27.460Z,101057.88
2023-01-11T14:34:14.463Z,101054.41
2023-01-11T14:36:44.271Z,101044.53
2023-01-11T14:39:23.729Z,101048.63
2023-01-11T14:42:29.337Z,101042.13
2023-01-11T14:45:13.712Z,101038.75
2023-01-11T14:48:03.235Z,101044.00
2023-01-11T14:50:35.359Z,101060.19
2023-01-11T14:53:03.993Z,101051.28
2023-01-11T14:55:37.400Z,101046.91
2023-01-11T14:58:17.615Z,101055.09
2023-01-11T15:00:43.929Z,101052.41
2023-01-11T15:03:12.863Z,101046.25
2023-01-11T15:05:46.603Z,101057.84
2023-01-11T15:08:15.709Z,101060.63
2023-01-11T15:11:06.072Z,101058.88
2023-01-11T15:13:44.379Z,101062.50
2023-01-11T15:16:29.671Z,101056.34
2023-01-11T15:18:56.301Z,101056.53
2023-01-11T15:21:26.643Z,101058.34
2023-01-11T15:23:58.370Z,101065.50
2023-01-11T15:26:26.882Z,101079.06
2023-01-11T15:28:59.265Z,101071.97
2023-01-11T15:31:53.708Z,101063.34
2023-01-11T15:34:26.168Z,101062.56
2023-01-11T15:37:19.012Z,101055.53
2023-01-11T15:39:58.935Z,101064.44
2023-01-11T15:42:43.033Z,101066.50
2023-01-11T15:45:38.179Z,101073.69
2023-01-11T15:48:39.760Z,101078.34
2023-01-11T15:51:34.833Z,101076.59
2023-01-11T15:54:32.696Z,101084.63
2023-01-11T15:57:23.682Z,101092.81
2023-01-11T16:00:17.709Z,101100.84
2023-01-11T16:03:05.729Z,101100.06
2023-01-11T16:05:37.341Z,101110.84
2023-01-11T16:08:19.120Z,101115.44
2023-01-11T16:10:52.712Z,101128.88
2023-01-11T16:13:31.106Z,101122.81
2023-01-11T16:16:12.799Z,101124.63
2023-01-11T16:18:44.908Z,101121.25
2023-01-11T16:21:33.418Z,101133.78
2023-01-11T16:24:04.813Z,101134.75
2023-01-11T16:26:34.002Z,101126.78
2023-01-11T16:29:12.573Z,101133.09
2023-01-11T16:32:00.169Z,101145.88
2023-01-11T16:34:29.112Z,101137.88
2023-01-11T16:36:57.532Z,101146.00
2023-01-11T16:39:29.681Z,101142.53
2023-01-11T16:42:05.645Z,101156.00
2023-01-11T16:44:44.535Z,101150.81
2023-01-11T16:47:16.771Z,101162.53
2023-01-11T16:49:49.047Z,101158.19
2023-01-11T16:52:36.913Z,101166.44
2023-01-11T16:55:30.009Z,101160.28
2023-01-11T16:57:59.045Z,101156.91
2023-01-11T17:00:38.274Z,101164.06
2023-01-11T17:03:25.886Z,101160.75
2023-01-11T17:06:02.164Z,101164.47
2023-01-11T17:08:32.787Z,101162.78
2023-01-11T17:11:10.525Z,101153.97
2023-01-11T17:14:02.131Z,101165.75
2023-01-11T17:16:31.740Z,101171.09
2023-01-11T17:19:06.173Z,101175.66
2023-01-11T17:21:32.695Z,101177.56
2023-01-11T17:24:02.596Z,101173.22
2023-01-11T17:26:33.288Z,101176.75
2023-01-11T17:29:00.525Z,101180.44
2023-01-11T17:31:32.100Z,101168.94
2023-01-11T17:34:20.556Z,101171.69
2023-01-11T17:36:47.885Z,101177.19
2023-01-11T17:39:25.720Z,101171.81
2023-01-11T17:42:11.191Z,101165.75
2023-01-11T17:44:56.433Z,101161.38
2023-01-11T17:47:23.763Z,101157.03
2023-01-11T17:49:54.734Z,101157.97
2023-01-11T17:52:24.355Z,101143.78
2023-01-11T17:55:02.523Z,101161.59
2023-01-11T17:57:29.123Z,101142.94
2023-01-11T18:00:18.874Z,101138.59
2023-01-11T18:02:46.453Z,101136.00
2023-01-11T18:05:18.721Z,101148.41
2023-01-11T18:07:50.314Z,101144.13
2023-01-11T18:10:26.801Z,101144.25
2023-01-11T18:12:55.770Z,101137.88
2023-01-11T18:15:34.548Z,101141.06
2023-01-11T18:18:01.654Z,101134.75
2023-01-11T18:20:40.952Z,101116.94
2023-01-11T18:23:22.613Z,101131.19
2023-01-11T18:25:49.099Z,101127.78
2023-01-11T18:28:25.971Z,101127.78
2023-01-11T18:30:58.212Z,101138.34
2023-01-11T18:33:28.014Z,101133.84
2023-01-11T18:35:59.883Z,101140.06
2023-01-11T18:38:29.177Z,101124.88
2023-01-11T18:40:58.476Z,101121.25
2023-01-11T18:43:28.059Z,101129.28
2023-01-11T18:45:55.476Z,101128.38
2023-01-11T18:48:22.837Z,101127.50
2023-01-11T18:50:51.850Z,101106.13
2023-01-11T18:53:18.724Z,101122.06
2023-01-11T18:55:46.076Z,101114.03
2023-01-11T18:58:12.543Z,101121.13
2023-01-11T19:00:40.954Z,101123.00
2023-01-11T19:03:10.787Z,101119.38
2023-01-11T19:05:37.332Z,101114.19
2023-01-11T19:08:03.885Z,101114.19
2023-01-11T19:10:30.283Z,101107.91
2023-01-11T19:12:57.385Z,101104.34
2023-01-11T19:15:24.362Z,101099.88
2023-01-11T19:17:50.774Z,101091.09
2023-01-11T19:20:17.310Z,101089.19
2023-01-11T19:22:43.860Z,101079.38
2023-01-11T19:25:10.772Z,101091.09
2023-01-11T19:27:37.584Z,101082.97
2023-01-11T19:30:07.453Z,101088.31
2023-01-11T19:32:33.973Z,101091.09
2023-01-11T19:35:00.575Z,101087.53
2023-01-11T19:37:29.931Z,101085.75
2023-01-11T19:39:56.481Z,101072.44
2023-01-11T19:42:23.867Z,101087.47
2023-01-11T19:44:51.287Z,101067.94
2023-01-11T19:47:17.709Z,101066.06
2023-01-11T19:49:44.290Z,101064.34
2023-01-11T19:52:13.536Z,101059.88
2023-01-11T19:54:43.656Z,101057.19
2023-01-11T19:57:15.370Z,101044.69
2023-01-11T19:59:42.163Z,101048.31
2023-01-11T20:02:10.982Z,101047.50
2023-01-11T20:04:37.406Z,101046.56
2023-01-11T20:07:04.394Z,101036.75
2023-01-11T20:09:30.786Z,101032.28
2023-01-11T20:11:58.732Z,101034.94
2023-01-11T20:14:25.504Z,101041.16
2023-01-11T20:16:51.968Z,101033.19
2023-01-11T20:19:18.377Z,101033.13
2023-01-11T20:21:45.832Z,101024.31
2023-01-11T20:24:13.788Z,101035.88
2023-01-11T20:26:41.538Z,101027.84
2023-01-11T20:29:08.156Z,101035.88
2023-01-11T20:31:35.755Z,101030.53
2023-01-11T20:34:10.958Z,101035.00
2023-01-11T20:36:40.602Z,101018.97
2023-01-11T20:39:07.234Z,101007.41
2023-01-11T20:41:49.222Z,100994.06
2023-01-11T20:44:23.702Z,101011.91
2023-01-11T20:46:51.636Z,101009.31
2023-01-11T20:49:18.735Z,100998.63
2023-01-11T20:51:46.442Z,100998.63
2023-01-11T20:54:13.119Z,100993.28
2023-01-11T20:56:40.757Z,101003.09
2023-01-11T20:59:09.043Z,100997.81
2023-01-11T21:01:36.865Z,100986.28
2023-01-11T21:04:07.938Z,100996.09
2023-01-11T21:06:37.175Z,100995.31
2023-01-11T21:09:05.066Z,100981.13
2023-01-11T21:11:32.082Z,100983.81
2023-01-11T21:14:00.515Z,100983.91
2023-01-11T21:16:28.805Z,100988.22
2023-01-11T21:18:57.473Z,100994.50
2023-01-11T21:21:24.970Z,101008.81
2023-01-11T21:23:55.380Z,101006.13
2023-01-11T21:26:21.902Z,100992.00
2023-01-11T21:28:59.645Z,101013.38
2023-01-11T21:31:34.465Z,101028.53
2023-01-11T21:34:02.037Z,101028.63
2023-01-11T21:36:30.400Z,101028.63
2023-01-11T21:38:58.260Z,101032.22
2023-01-11T21:41:45.914Z,101033.13
2023-01-11T21:44:13.777Z,101048.38
2023-01-11T21:46:41.153Z,101051.06
2023-01-11T21:49:08.011Z,101043.94
2023-01-11T21:51:34.616Z,101070.66
2023-01-11T21:54:04.854Z,101052.91
2023-01-11T21:56:31.313Z,101055.66
2023-01-11T21:58:57.740Z,101044.09
2023-01-11T22:01:24.105Z,101033.41
2023-01-11T22:03:50.803Z,101030.91
2023-01-11T22:06:17.736Z,101029.00
2023-01-11T22:08:45.203Z,101026.34
2023-01-11T22:11:13.943Z,101021.94
2023-01-11T22:13:41.179Z,101014.88
2023-01-11T22:16:11.584Z,101005.09
2023-01-11T22:18:38.027Z,101005.09
2023-01-11T22:21:09.335Z,101005.09
2023-01-11T22:23:36.148Z,101001.66
2023-01-11T22:26:04.859Z,101001.66
2023-01-11T22:28:31.227Z,100999.91
2023-01-11T22:31:05.189Z,101003.53
2023-01-11T22:33:31.677Z,101003.53
2023-01-11T22:35:58.078Z,101002.66
2023-01-11T22:38:24.487Z,101003.69
2023-01-11T22:40:50.893Z,101005.41
2023-01-11T22:43:17.267Z,101014.31
2023-01-11T22:45:43.656Z,101006.34
2023-01-11T22:48:10.015Z,101023.31
2023-01-11T22:50:38.644Z,101033.06
2023-01-11T22:53:04.984Z,101025.19
2023-01-11T22:55:33.054Z,101026.91
2023-01-11T22:57:59.449Z,101020.78
2023-01-11T23:00:25.842Z,101027.84
2023-01-11T23:02:52.429Z,101023.47
2023-01-11T23:05:18.895Z,101014.66
2023-01-11T23:07:45.260Z,101019.06
2023-01-11T23:10:11.612Z,101021.75
2023-01-11T23:12:58.626Z,101015.59
2023-01-11T23:15:24.949Z,101036.88
2023-01-11T23:17:51.358Z,101027.66
2023-01-11T23:20:17.885Z,101027.38
2023-01-11T23:22:44.315Z,101016.69
2023-01-11T23:25:10.740Z,101015.66
2023-01-11T23:27:37.153Z,101006.88
2023-01-11T23:30:04.111Z,100999.63
2023-01-11T23:32:30.512Z,100989.03
2023-01-11T23:34:56.927Z,100991.69
2023-01-11T23:37:23.296Z,100995.22
2023-01-11T23:39:49.666Z,100979.28
2023-01-11T23:42:28.000Z,100989.13
2023-01-11T23:44:55.154Z,100982.88
2023-01-11T23:47:24.604Z,100981.97
2023-01-11T23:49:55.764Z,100972.19
2023-01-11T23:52:25.242Z,100979.28
2023-01-11T23:54:51.924Z,100973.22
2023-01-11T23:57:19.779Z,100983.81
2023-01-11T23:59:46.540Z,100983.81
